sensor_id;sensor_type;location;lat;lon;timestamp;temperature;humidity
66102;HTU21D;52883;51.094;5.880;2023-06-26T00:01:31;19.39;118.99
66102;HTU21D;52883;51.094;5.880;2023-06-26T00:03:57;19.32;118.99
66102;HTU21D;52883;51.094;5.880;2023-06-26T00:06:25;19.32;118.99
66102;HTU21D;52883;51.094;5.880;2023-06-26T00:08:53;19.33;118.99
66102;HTU21D;52883;51.094;5.880;2023-06-26T00:11:19;19.32;118.99
66102;HTU21D;52883;51.094;5.880;2023-06-26T00:13:45;19.26;118.99
66102;HTU21D;52883;51.094;5.880;2023-06-26T00:16:11;19.24;118.99
66102;HTU21D;52883;51.094;5.880;2023-06-26T00:18:36;19.18;118.99
66102;HTU21D;52883;51.094;5.880;2023-06-26T00:21:02;19.15;118.99
66102;HTU21D;52883;51.094;5.880;2023-06-26T00:23:27;19.12;118.99
66102;HTU21D;52883;51.094;5.880;2023-06-26T00:25:53;19.13;118.99
66102;HTU21D;52883;51.094;5.880;2023-06-26T00:28:19;19.12;118.99
66102;HTU21D;52883;51.094;5.880;2023-06-26T00:30:45;19.11;118.99
66102;HTU21D;52883;51.094;5.880;2023-06-26T00:33:10;19.09;118.99
66102;HTU21D;52883;51.094;5.880;2023-06-26T00:35:36;19.07;118.99
66102;HTU21D;52883;51.094;5.880;2023-06-26T00:38:03;19.05;118.99
66102;HTU21D;52883;51.094;5.880;2023-06-26T00:40:29;19.00;118.99
66102;HTU21D;52883;51.094;5.880;2023-06-26T00:42:55;18.92;118.99
66102;HTU21D;52883;51.094;5.880;2023-06-26T00:45:21;18.87;118.99
66102;HTU21D;52883;51.094;5.880;2023-06-26T00:47:48;18.85;118.99
66102;HTU21D;52883;51.094;5.880;2023-06-26T00:50:14;18.83;118.99
66102;HTU21D;52883;51.094;5.880;2023-06-26T00:52:41;18.80;118.99
66102;HTU21D;52883;51.094;5.880;2023-06-26T00:55:07;18.77;118.99
66102;HTU21D;52883;51.094;5.880;2023-06-26T00:57:33;18.78;118.99
66102;HTU21D;52883;51.094;5.880;2023-06-26T01:00:01;18.79;118.99
66102;HTU21D;52883;51.094;5.880;2023-06-26T01:02:29;18.81;118.99
66102;HTU21D;52883;51.094;5.880;2023-06-26T01:05:00;18.81;118.99
66102;HTU21D;52883;51.094;5.880;2023-06-26T01:07:29;18.82;118.99
66102;HTU21D;52883;51.094;5.880;2023-06-26T01:09:58;18.83;118.99
66102;HTU21D;52883;51.094;5.880;2023-06-26T01:12:25;18.86;118.99
66102;HTU21D;52883;51.094;5.880;2023-06-26T01:14:50;18.88;118.99
66102;HTU21D;52883;51.094;5.880;2023-06-26T01:17:17;18.93;118.99
66102;HTU21D;52883;51.094;5.880;2023-06-26T01:19:44;18.96;118.99
66102;HTU21D;52883;51.094;5.880;2023-06-26T01:25:18;19.12;118.99
66102;HTU21D;52883;51.094;5.880;2023-06-26T01:27:46;19.17;118.99
66102;HTU21D;52883;51.094;5.880;2023-06-26T01:30:13;19.22;118.99
66102;HTU21D;52883;51.094;5.880;2023-06-26T01:32:40;19.21;118.99
66102;HTU21D;52883;51.094;5.880;2023-06-26T01:35:07;19.20;118.99
66102;HTU21D;52883;51.094;5.880;2023-06-26T01:37:33;19.17;118.99
66102;HTU21D;52883;51.094;5.880;2023-06-26T01:39:59;19.16;118.99
66102;HTU21D;52883;51.094;5.880;2023-06-26T01:42:25;19.16;118.99
66102;HTU21D;52883;51.094;5.880;2023-06-26T01:44:52;19.14;118.99
66102;HTU21D;52883;51.094;5.880;2023-06-26T01:47:27;19.10;118.99
66102;HTU21D;52883;51.094;5.880;2023-06-26T01:50:02;19.15;118.99
66102;HTU21D;52883;51.094;5.880;2023-06-26T01:55:40;19.16;118.99
66102;HTU21D;52883;51.094;5.880;2023-06-26T01:58:06;19.17;118.99
66102;HTU21D;52883;51.094;5.880;2023-06-26T02:00:32;19.16;118.99
66102;HTU21D;52883;51.094;5.880;2023-06-26T02:02:59;19.14;118.99
66102;HTU21D;52883;51.094;5.880;2023-06-26T02:05:24;19.11;118.99
66102;HTU21D;52883;51.094;5.880;2023-06-26T02:07:50;19.09;118.99
66102;HTU21D;52883;51.094;5.880;2023-06-26T02:10:17;19.03;118.99
66102;HTU21D;52883;51.094;5.880;2023-06-26T02:12:42;19.02;118.99
66102;HTU21D;52883;51.094;5.880;2023-06-26T02:15:08;19.05;118.99
66102;HTU21D;52883;51.094;5.880;2023-06-26T02:17:34;19.06;118.99
66102;HTU21D;52883;51.094;5.880;2023-06-26T02:20:00;19.07;118.99
66102;HTU21D;52883;51.094;5.880;2023-06-26T02:22:25;19.09;118.99
66102;HTU21D;52883;51.094;5.880;2023-06-26T02:24:51;19.14;118.99
66102;HTU21D;52883;51.094;5.880;2023-06-26T02:27:17;19.18;118.99
66102;HTU21D;52883;51.094;5.880;2023-06-26T02:29:42;19.18;118.99
66102;HTU21D;52883;51.094;5.880;2023-06-26T02:32:08;19.23;118.99
66102;HTU21D;52883;51.094;5.880;2023-06-26T02:34:35;19.27;118.99
66102;HTU21D;52883;51.094;5.880;2023-06-26T02:37:01;19.30;118.99
66102;HTU21D;52883;51.094;5.880;2023-06-26T02:39:27;19.33;118.99
66102;HTU21D;52883;51.094;5.880;2023-06-26T02:41:54;19.37;118.99
66102;HTU21D;52883;51.094;5.880;2023-06-26T02:44:22;19.43;118.99
66102;HTU21D;52883;51.094;5.880;2023-06-26T02:46:47;19.47;118.99
66102;HTU21D;52883;51.094;5.880;2023-06-26T02:49:13;19.45;118.99
66102;HTU21D;52883;51.094;5.880;2023-06-26T02:51:39;19.35;118.99
66102;HTU21D;52883;51.094;5.880;2023-06-26T02:54:12;19.27;118.99
66102;HTU21D;52883;51.094;5.880;2023-06-26T02:56:39;19.21;118.99
66102;HTU21D;52883;51.094;5.880;2023-06-26T02:59:05;19.16;118.99
66102;HTU21D;52883;51.094;5.880;2023-06-26T03:01:31;19.07;118.99
66102;HTU21D;52883;51.094;5.880;2023-06-26T03:03:56;18.98;118.99
66102;HTU21D;52883;51.094;5.880;2023-06-26T03:06:22;18.86;118.99
66102;HTU21D;52883;51.094;5.880;2023-06-26T03:08:48;18.76;118.99
66102;HTU21D;52883;51.094;5.880;2023-06-26T03:11:15;18.69;118.99
66102;HTU21D;52883;51.094;5.880;2023-06-26T03:13:40;18.67;118.99
66102;HTU21D;52883;51.094;5.880;2023-06-26T03:16:06;18.72;118.99
66102;HTU21D;52883;51.094;5.880;2023-06-26T03:18:32;18.77;118.99
66102;HTU21D;52883;51.094;5.880;2023-06-26T03:20:58;18.77;118.99
66102;HTU21D;52883;51.094;5.880;2023-06-26T03:23:25;18.78;118.99
66102;HTU21D;52883;51.094;5.880;2023-06-26T03:25:51;18.81;118.99
66102;HTU21D;52883;51.094;5.880;2023-06-26T03:28:24;18.77;118.99
66102;HTU21D;52883;51.094;5.880;2023-06-26T03:30:50;18.70;118.99
66102;HTU21D;52883;51.094;5.880;2023-06-26T03:33:16;18.67;118.99
66102;HTU21D;52883;51.094;5.880;2023-06-26T03:35:42;18.65;118.99
66102;HTU21D;52883;51.094;5.880;2023-06-26T03:38:11;18.66;118.99
66102;HTU21D;52883;51.094;5.880;2023-06-26T03:40:37;18.67;118.99
66102;HTU21D;52883;51.094;5.880;2023-06-26T03:43:02;18.67;118.99
66102;HTU21D;52883;51.094;5.880;2023-06-26T03:45:35;18.68;118.99
66102;HTU21D;52883;51.094;5.880;2023-06-26T03:48:01;18.68;118.99
66102;HTU21D;52883;51.094;5.880;2023-06-26T03:50:27;18.74;118.99
66102;HTU21D;52883;51.094;5.880;2023-06-26T03:52:52;18.76;118.99
66102;HTU21D;52883;51.094;5.880;2023-06-26T03:55:19;18.79;118.99
66102;HTU21D;52883;51.094;5.880;2023-06-26T03:57:46;18.79;118.99
66102;HTU21D;52883;51.094;5.880;2023-06-26T04:00:13;18.83;118.99
66102;HTU21D;52883;51.094;5.880;2023-06-26T04:02:41;18.87;118.99
66102;HTU21D;52883;51.094;5.880;2023-06-26T04:05:08;18.95;118.99
66102;HTU21D;52883;51.094;5.880;2023-06-26T04:07:33;19.06;118.99
66102;HTU21D;52883;51.094;5.880;2023-06-26T04:10:01;19.17;118.99
66102;HTU21D;52883;51.094;5.880;2023-06-26T04:12:27;19.25;118.99
66102;HTU21D;52883;51.094;5.880;2023-06-26T04:14:53;19.33;118.99
66102;HTU21D;52883;51.094;5.880;2023-06-26T04:17:18;19.38;118.99
66102;HTU21D;52883;51.094;5.880;2023-06-26T04:19:44;19.45;118.99
66102;HTU21D;52883;51.094;5.880;2023-06-26T04:22:09;19.59;118.99
66102;HTU21D;52883;51.094;5.880;2023-06-26T04:24:35;19.69;118.99
66102;HTU21D;52883;51.094;5.880;2023-06-26T04:27:01;19.79;118.99
66102;HTU21D;52883;51.094;5.880;2023-06-26T04:29:27;19.87;118.99
66102;HTU21D;52883;51.094;5.880;2023-06-26T04:31:53;20.17;118.99
66102;HTU21D;52883;51.094;5.880;2023-06-26T04:34:27;21.03;118.99
66102;HTU21D;52883;51.094;5.880;2023-06-26T04:36:54;22.03;118.99
66102;HTU21D;52883;51.094;5.880;2023-06-26T04:39:20;23.01;118.99
66102;HTU21D;52883;51.094;5.880;2023-06-26T04:41:45;23.82;118.99
66102;HTU21D;52883;51.094;5.880;2023-06-26T04:44:11;24.28;118.99
66102;HTU21D;52883;51.094;5.880;2023-06-26T04:46:37;24.27;118.99
66102;HTU21D;52883;51.094;5.880;2023-06-26T04:49:07;24.18;118.99
66102;HTU21D;52883;51.094;5.880;2023-06-26T04:51:33;24.30;118.99
66102;HTU21D;52883;51.094;5.880;2023-06-26T04:53:58;24.27;118.99
66102;HTU21D;52883;51.094;5.880;2023-06-26T04:56:24;24.11;118.99
66102;HTU21D;52883;51.094;5.880;2023-06-26T04:58:50;23.70;118.99
66102;HTU21D;52883;51.094;5.880;2023-06-26T05:01:15;24.20;118.99
66102;HTU21D;52883;51.094;5.880;2023-06-26T05:03:41;25.02;118.99
66102;HTU21D;52883;51.094;5.880;2023-06-26T05:06:06;25.74;118.99
66102;HTU21D;52883;51.094;5.880;2023-06-26T05:08:32;26.32;118.99
66102;HTU21D;52883;51.094;5.880;2023-06-26T05:10:58;26.69;118.99
66102;HTU21D;52883;51.094;5.880;2023-06-26T05:13:24;26.53;118.99
66102;HTU21D;52883;51.094;5.880;2023-06-26T05:15:51;25.52;118.99
66102;HTU21D;52883;51.094;5.880;2023-06-26T05:18:17;24.49;118.99
66102;HTU21D;52883;51.094;5.880;2023-06-26T05:20:43;23.97;118.99
66102;HTU21D;52883;51.094;5.880;2023-06-26T05:23:11;24.80;118.99
66102;HTU21D;52883;51.094;5.880;2023-06-26T05:25:38;25.82;118.99
66102;HTU21D;52883;51.094;5.880;2023-06-26T05:28:04;26.79;118.99
66102;HTU21D;52883;51.094;5.880;2023-06-26T05:30:31;27.43;118.99
66102;HTU21D;52883;51.094;5.880;2023-06-26T05:33:00;27.95;118.99
66102;HTU21D;52883;51.094;5.880;2023-06-26T05:35:29;28.01;118.99
66102;HTU21D;52883;51.094;5.880;2023-06-26T05:37:56;27.82;118.99
66102;HTU21D;52883;51.094;5.880;2023-06-26T05:40:22;28.09;118.99
66102;HTU21D;52883;51.094;5.880;2023-06-26T05:42:48;28.25;118.99
66102;HTU21D;52883;51.094;5.880;2023-06-26T05:45:14;28.30;118.99
66102;HTU21D;52883;51.094;5.880;2023-06-26T05:47:40;28.59;118.99
66102;HTU21D;52883;51.094;5.880;2023-06-26T05:50:08;28.95;118.99
66102;HTU21D;52883;51.094;5.880;2023-06-26T05:52:34;29.09;118.99
66102;HTU21D;52883;51.094;5.880;2023-06-26T05:55:01;29.36;118.99
66102;HTU21D;52883;51.094;5.880;2023-06-26T05:57:28;29.73;118.99
66102;HTU21D;52883;51.094;5.880;2023-06-26T05:59:55;30.13;118.99
66102;HTU21D;52883;51.094;5.880;2023-06-26T06:02:21;30.08;118.99
66102;HTU21D;52883;51.094;5.880;2023-06-26T06:04:46;30.57;118.99
66102;HTU21D;52883;51.094;5.880;2023-06-26T06:07:12;30.95;118.47
66102;HTU21D;52883;51.094;5.880;2023-06-26T06:09:38;31.34;116.15
66102;HTU21D;52883;51.094;5.880;2023-06-26T06:12:05;31.52;101.54
66102;HTU21D;52883;51.094;5.880;2023-06-26T06:14:32;31.34;113.46
66102;HTU21D;52883;51.094;5.880;2023-06-26T06:16:58;31.35;100.32
66102;HTU21D;52883;51.094;5.880;2023-06-26T06:19:23;31.08;109.38
66102;HTU21D;52883;51.094;5.880;2023-06-26T06:21:49;31.30;113.58
66102;HTU21D;52883;51.094;5.880;2023-06-26T06:24:15;31.23;104.72
66102;HTU21D;52883;51.094;5.880;2023-06-26T06:26:40;31.09;111.87
66102;HTU21D;52883;51.094;5.880;2023-06-26T06:29:06;31.56;98.25
66102;HTU21D;52883;51.094;5.880;2023-06-26T06:31:32;31.79;96.09
66102;HTU21D;52883;51.094;5.880;2023-06-26T06:33:57;31.61;103.06
66102;HTU21D;52883;51.094;5.880;2023-06-26T06:36:23;31.84;105.17
66102;HTU21D;52883;51.094;5.880;2023-06-26T06:38:49;32.22;97.34
66102;HTU21D;52883;51.094;5.880;2023-06-26T06:41:14;32.33;99.53
66102;HTU21D;52883;51.094;5.880;2023-06-26T06:43:41;32.45;99.15
66102;HTU21D;52883;51.094;5.880;2023-06-26T06:46:06;32.68;93.37
66102;HTU21D;52883;51.094;5.880;2023-06-26T06:48:32;32.71;94.48
66102;HTU21D;52883;51.094;5.880;2023-06-26T06:50:57;32.93;96.23
66102;HTU21D;52883;51.094;5.880;2023-06-26T06:53:23;33.11;94.16
66102;HTU21D;52883;51.094;5.880;2023-06-26T06:55:49;33.13;84.42
66102;HTU21D;52883;51.094;5.880;2023-06-26T06:58:15;33.23;89.02
66102;HTU21D;52883;51.094;5.880;2023-06-26T07:00:48;33.34;88.67
66102;HTU21D;52883;51.094;5.880;2023-06-26T07:03:14;33.43;85.44
66102;HTU21D;52883;51.094;5.880;2023-06-26T07:05:41;33.43;89.05
66102;HTU21D;52883;51.094;5.880;2023-06-26T07:08:08;33.48;81.83
66102;HTU21D;52883;51.094;5.880;2023-06-26T07:10:34;32.83;80.93
66102;HTU21D;52883;51.094;5.880;2023-06-26T07:13:00;32.92;87.13
66102;HTU21D;52883;51.094;5.880;2023-06-26T07:15:25;32.62;80.32
66102;HTU21D;52883;51.094;5.880;2023-06-26T07:17:51;32.64;91.36
66102;HTU21D;52883;51.094;5.880;2023-06-26T07:20:17;33.53;87.66
66102;HTU21D;52883;51.094;5.880;2023-06-26T07:22:43;33.83;83.39
66102;HTU21D;52883;51.094;5.880;2023-06-26T07:25:10;34.02;81.75
66102;HTU21D;52883;51.094;5.880;2023-06-26T07:27:37;34.07;81.15
66102;HTU21D;52883;51.094;5.880;2023-06-26T07:30:03;33.70;78.19
66102;HTU21D;52883;51.094;5.880;2023-06-26T07:32:29;34.06;78.56
66102;HTU21D;52883;51.094;5.880;2023-06-26T07:34:54;33.78;73.83
66102;HTU21D;52883;51.094;5.880;2023-06-26T07:37:20;34.04;74.75
66102;HTU21D;52883;51.094;5.880;2023-06-26T07:39:47;33.01;73.14
66102;HTU21D;52883;51.094;5.880;2023-06-26T07:42:13;31.83;88.58
66102;HTU21D;52883;51.094;5.880;2023-06-26T07:44:38;31.48;87.73
66102;HTU21D;52883;51.094;5.880;2023-06-26T07:47:04;31.82;85.97
66102;HTU21D;52883;51.094;5.880;2023-06-26T07:49:30;31.50;94.20
66102;HTU21D;52883;51.094;5.880;2023-06-26T07:51:55;31.37;92.51
66102;HTU21D;52883;51.094;5.880;2023-06-26T07:54:21;31.29;97.07
66102;HTU21D;52883;51.094;5.880;2023-06-26T07:56:58;31.64;95.94
66102;HTU21D;52883;51.094;5.880;2023-06-26T07:59:25;31.75;86.00
66102;HTU21D;52883;51.094;5.880;2023-06-26T08:01:53;31.48;91.63
66102;HTU21D;52883;51.094;5.880;2023-06-26T08:04:20;31.39;92.79
66102;HTU21D;52883;51.094;5.880;2023-06-26T08:06:48;31.69;91.34
66102;HTU21D;52883;51.094;5.880;2023-06-26T08:09:14;31.56;91.14
66102;HTU21D;52883;51.094;5.880;2023-06-26T08:11:39;31.16;93.76
66102;HTU21D;52883;51.094;5.880;2023-06-26T08:14:05;30.68;94.98
66102;HTU21D;52883;51.094;5.880;2023-06-26T08:16:31;29.80;98.89
66102;HTU21D;52883;51.094;5.880;2023-06-26T08:18:56;29.35;101.84
66102;HTU21D;52883;51.094;5.880;2023-06-26T08:21:22;29.07;105.84
66102;HTU21D;52883;51.094;5.880;2023-06-26T08:23:47;29.01;109.04
66102;HTU21D;52883;51.094;5.880;2023-06-26T08:26:14;29.28;108.17
66102;HTU21D;52883;51.094;5.880;2023-06-26T08:28:39;30.35;100.21
66102;HTU21D;52883;51.094;5.880;2023-06-26T08:31:05;31.24;94.28
66102;HTU21D;52883;51.094;5.880;2023-06-26T08:33:30;32.01;91.34
66102;HTU21D;52883;51.094;5.880;2023-06-26T08:35:56;32.81;86.40
66102;HTU21D;52883;51.094;5.880;2023-06-26T08:38:22;33.42;81.75
66102;HTU21D;52883;51.094;5.880;2023-06-26T08:40:48;33.99;69.04
66102;HTU21D;52883;51.094;5.880;2023-06-26T08:43:14;34.21;72.87
66102;HTU21D;52883;51.094;5.880;2023-06-26T08:45:39;34.01;76.89
66102;HTU21D;52883;51.094;5.880;2023-06-26T08:48:07;34.47;78.44
66102;HTU21D;52883;51.094;5.880;2023-06-26T08:50:35;35.11;64.37
66102;HTU21D;52883;51.094;5.880;2023-06-26T08:55:41;34.56;65.52
66102;HTU21D;52883;51.094;5.880;2023-06-26T08:58:08;34.54;70.92
66102;HTU21D;52883;51.094;5.880;2023-06-26T09:00:34;35.12;70.71
66102;HTU21D;52883;51.094;5.880;2023-06-26T09:03:03;35.50;61.31
66102;HTU21D;52883;51.094;5.880;2023-06-26T09:05:29;36.23;62.53
66102;HTU21D;52883;51.094;5.880;2023-06-26T09:07:57;36.40;64.95
66102;HTU21D;52883;51.094;5.880;2023-06-26T09:10:25;35.36;69.27
66102;HTU21D;52883;51.094;5.880;2023-06-26T09:12:50;34.34;72.72
66102;HTU21D;52883;51.094;5.880;2023-06-26T09:15:20;33.75;72.31
66102;HTU21D;52883;51.094;5.880;2023-06-26T09:17:45;32.74;72.57
66102;HTU21D;52883;51.094;5.880;2023-06-26T09:20:12;32.38;79.93
66102;HTU21D;52883;51.094;5.880;2023-06-26T09:22:43;33.04;69.68
66102;HTU21D;52883;51.094;5.880;2023-06-26T09:25:12;33.19;70.38
66102;HTU21D;52883;51.094;5.880;2023-06-26T09:27:37;32.32;71.67
66102;HTU21D;52883;51.094;5.880;2023-06-26T09:30:04;31.51;82.34
66102;HTU21D;52883;51.094;5.880;2023-06-26T09:32:34;31.27;77.98
66102;HTU21D;52883;51.094;5.880;2023-06-26T09:35:02;30.69;84.26
66102;HTU21D;52883;51.094;5.880;2023-06-26T09:37:28;31.08;88.22
66102;HTU21D;52883;51.094;5.880;2023-06-26T09:39:53;32.08;79.10
66102;HTU21D;52883;51.094;5.880;2023-06-26T09:42:20;33.14;72.05
66102;HTU21D;52883;51.094;5.880;2023-06-26T09:44:47;33.97;65.79
66102;HTU21D;52883;51.094;5.880;2023-06-26T09:47:16;34.49;59.70
66102;HTU21D;52883;51.094;5.880;2023-06-26T09:49:42;34.64;62.18
66102;HTU21D;52883;51.094;5.880;2023-06-26T09:52:09;35.01;55.10
66102;HTU21D;52883;51.094;5.880;2023-06-26T09:54:35;35.35;55.81
66102;HTU21D;52883;51.094;5.880;2023-06-26T09:57:18;34.71;60.17
66102;HTU21D;52883;51.094;5.880;2023-06-26T09:59:45;34.11;63.32
66102;HTU21D;52883;51.094;5.880;2023-06-26T10:02:11;34.11;62.75
66102;HTU21D;52883;51.094;5.880;2023-06-26T10:04:37;34.37;54.52
66102;HTU21D;52883;51.094;5.880;2023-06-26T10:07:11;33.92;57.78
66102;HTU21D;52883;51.094;5.880;2023-06-26T10:09:41;34.23;56.79
66102;HTU21D;52883;51.094;5.880;2023-06-26T10:12:14;34.38;53.64
66102;HTU21D;52883;51.094;5.880;2023-06-26T10:14:41;33.72;50.12
66102;HTU21D;52883;51.094;5.880;2023-06-26T10:17:10;32.55;57.44
66102;HTU21D;52883;51.094;5.880;2023-06-26T10:19:43;32.11;65.59
66102;HTU21D;52883;51.094;5.880;2023-06-26T10:22:12;32.68;60.76
66102;HTU21D;52883;51.094;5.880;2023-06-26T10:24:41;33.56;64.56
66102;HTU21D;52883;51.094;5.880;2023-06-26T10:27:19;34.61;57.79
66102;HTU21D;52883;51.094;5.880;2023-06-26T10:29:58;35.22;55.33
66102;HTU21D;52883;51.094;5.880;2023-06-26T10:32:27;35.58;51.82
66102;HTU21D;52883;51.094;5.880;2023-06-26T10:34:55;35.42;47.60
66102;HTU21D;52883;51.094;5.880;2023-06-26T10:37:43;34.25;47.12
66102;HTU21D;52883;51.094;5.880;2023-06-26T10:40:10;33.76;52.80
66102;HTU21D;52883;51.094;5.880;2023-06-26T10:42:38;33.90;50.20
66102;HTU21D;52883;51.094;5.880;2023-06-26T10:45:22;33.96;43.17
66102;HTU21D;52883;51.094;5.880;2023-06-26T10:47:51;34.25;52.79
66102;HTU21D;52883;51.094;5.880;2023-06-26T10:50:25;34.90;51.98
66102;HTU21D;52883;51.094;5.880;2023-06-26T10:55:36;36.26;43.77
66102;HTU21D;52883;51.094;5.880;2023-06-26T10:58:02;36.70;38.57
66102;HTU21D;52883;51.094;5.880;2023-06-26T11:00:28;37.15;36.21
66102;HTU21D;52883;51.094;5.880;2023-06-26T11:02:56;37.51;38.82
66102;HTU21D;52883;51.094;5.880;2023-06-26T11:05:33;37.33;36.04
66102;HTU21D;52883;51.094;5.880;2023-06-26T11:08:09;36.52;33.07
66102;HTU21D;52883;51.094;5.880;2023-06-26T11:10:54;35.51;43.70
66102;HTU21D;52883;51.094;5.880;2023-06-26T11:13:21;35.44;43.95
66102;HTU21D;52883;51.094;5.880;2023-06-26T11:15:49;35.70;44.86
66102;HTU21D;52883;51.094;5.880;2023-06-26T11:18:16;35.69;33.46
66102;HTU21D;52883;51.094;5.880;2023-06-26T11:20:42;34.76;36.00
66102;HTU21D;52883;51.094;5.880;2023-06-26T11:23:08;33.87;34.66
66102;HTU21D;52883;51.094;5.880;2023-06-26T11:25:36;33.49;40.32
66102;HTU21D;52883;51.094;5.880;2023-06-26T11:28:03;33.85;37.46
66102;HTU21D;52883;51.094;5.880;2023-06-26T11:30:30;34.24;33.16
66102;HTU21D;52883;51.094;5.880;2023-06-26T11:33:03;34.41;36.30
66102;HTU21D;52883;51.094;5.880;2023-06-26T11:35:29;34.52;36.97
66102;HTU21D;52883;51.094;5.880;2023-06-26T11:37:59;34.54;36.43
66102;HTU21D;52883;51.094;5.880;2023-06-26T11:40:27;34.12;33.69
66102;HTU21D;52883;51.094;5.880;2023-06-26T11:42:56;33.78;33.93
66102;HTU21D;52883;51.094;5.880;2023-06-26T11:45:22;33.75;36.63
66102;HTU21D;52883;51.094;5.880;2023-06-26T11:47:48;33.48;34.19
66102;HTU21D;52883;51.094;5.880;2023-06-26T11:50:18;33.20;36.98
66102;HTU21D;52883;51.094;5.880;2023-06-26T11:52:44;33.46;34.35
66102;HTU21D;52883;51.094;5.880;2023-06-26T11:55:10;33.67;32.73
66102;HTU21D;52883;51.094;5.880;2023-06-26T11:57:37;33.58;35.18
66102;HTU21D;52883;51.094;5.880;2023-06-26T12:00:15;33.79;39.84
66102;HTU21D;52883;51.094;5.880;2023-06-26T12:02:44;34.23;34.57
66102;HTU21D;52883;51.094;5.880;2023-06-26T12:05:12;34.15;30.39
66102;HTU21D;52883;51.094;5.880;2023-06-26T12:07:39;33.79;33.02
66102;HTU21D;52883;51.094;5.880;2023-06-26T12:10:06;33.65;35.53
66102;HTU21D;52883;51.094;5.880;2023-06-26T12:12:33;33.41;31.72
66102;HTU21D;52883;51.094;5.880;2023-06-26T12:14:59;33.66;36.77
66102;HTU21D;52883;51.094;5.880;2023-06-26T12:17:25;34.19;37.84
66102;HTU21D;52883;51.094;5.880;2023-06-26T12:19:51;34.54;30.13
66102;HTU21D;52883;51.094;5.880;2023-06-26T12:22:18;34.11;33.55
66102;HTU21D;52883;51.094;5.880;2023-06-26T12:24:46;33.65;32.30
66102;HTU21D;52883;51.094;5.880;2023-06-26T12:27:15;33.56;33.64
66102;HTU21D;52883;51.094;5.880;2023-06-26T12:29:53;34.03;36.10
66102;HTU21D;52883;51.094;5.880;2023-06-26T12:32:19;34.67;33.25
66102;HTU21D;52883;51.094;5.880;2023-06-26T12:34:50;34.97;31.13
66102;HTU21D;52883;51.094;5.880;2023-06-26T12:37:16;35.01;30.50
66102;HTU21D;52883;51.094;5.880;2023-06-26T12:42:14;33.58;32.76
66102;HTU21D;52883;51.094;5.880;2023-06-26T12:44:40;33.27;35.80
66102;HTU21D;52883;51.094;5.880;2023-06-26T12:47:05;33.53;36.05
66102;HTU21D;52883;51.094;5.880;2023-06-26T12:49:37;33.20;32.69
66102;HTU21D;52883;51.094;5.880;2023-06-26T12:52:08;32.60;36.57
66102;HTU21D;52883;51.094;5.880;2023-06-26T12:54:35;31.89;39.36
66102;HTU21D;52883;51.094;5.880;2023-06-26T12:57:01;31.72;43.54
66102;HTU21D;52883;51.094;5.880;2023-06-26T12:59:30;31.69;43.79
66102;HTU21D;52883;51.094;5.880;2023-06-26T13:01:57;32.04;42.61
66102;HTU21D;52883;51.094;5.880;2023-06-26T13:04:23;32.84;41.03
66102;HTU21D;52883;51.094;5.880;2023-06-26T13:06:49;33.26;39.34
66102;HTU21D;52883;51.094;5.880;2023-06-26T13:09:16;33.26;37.48
66102;HTU21D;52883;51.094;5.880;2023-06-26T13:11:41;33.40;38.72
66102;HTU21D;52883;51.094;5.880;2023-06-26T13:14:07;33.16;38.54
66102;HTU21D;52883;51.094;5.880;2023-06-26T13:16:33;32.73;33.24
66102;HTU21D;52883;51.094;5.880;2023-06-26T13:18:59;32.45;37.87
66102;HTU21D;52883;51.094;5.880;2023-06-26T13:21:27;32.26;37.62
66102;HTU21D;52883;51.094;5.880;2023-06-26T13:23:54;31.95;38.98
66102;HTU21D;52883;51.094;5.880;2023-06-26T13:26:22;31.53;39.71
66102;HTU21D;52883;51.094;5.880;2023-06-26T13:28:49;31.15;40.38
66102;HTU21D;52883;51.094;5.880;2023-06-26T13:31:15;31.15;40.55
66102;HTU21D;52883;51.094;5.880;2023-06-26T13:33:41;31.33;41.87
66102;HTU21D;52883;51.094;5.880;2023-06-26T13:36:06;31.40;41.27
66102;HTU21D;52883;51.094;5.880;2023-06-26T13:38:33;31.33;40.16
66102;HTU21D;52883;51.094;5.880;2023-06-26T13:41:00;31.26;38.91
66102;HTU21D;52883;51.094;5.880;2023-06-26T13:43:27;31.51;42.39
66102;HTU21D;52883;51.094;5.880;2023-06-26T13:45:53;31.87;36.79
66102;HTU21D;52883;51.094;5.880;2023-06-26T13:48:19;32.10;36.89
66102;HTU21D;52883;51.094;5.880;2023-06-26T13:50:46;32.50;38.14
66102;HTU21D;52883;51.094;5.880;2023-06-26T13:53:12;32.73;38.82
66102;HTU21D;52883;51.094;5.880;2023-06-26T13:55:38;32.93;33.88
66102;HTU21D;52883;51.094;5.880;2023-06-26T13:58:07;32.98;34.56
66102;HTU21D;52883;51.094;5.880;2023-06-26T14:00:34;32.99;31.93
66102;HTU21D;52883;51.094;5.880;2023-06-26T14:03:01;32.52;29.84
66102;HTU21D;52883;51.094;5.880;2023-06-26T14:05:29;32.31;32.76
66102;HTU21D;52883;51.094;5.880;2023-06-26T14:07:55;32.48;32.99
66102;HTU21D;52883;51.094;5.880;2023-06-26T14:10:21;32.81;33.51
66102;HTU21D;52883;51.094;5.880;2023-06-26T14:12:47;32.83;28.03
66102;HTU21D;52883;51.094;5.880;2023-06-26T14:15:13;32.67;30.50
66102;HTU21D;52883;51.094;5.880;2023-06-26T14:17:39;32.77;33.03
66102;HTU21D;52883;51.094;5.880;2023-06-26T14:20:09;32.78;30.69
66102;HTU21D;52883;51.094;5.880;2023-06-26T14:22:43;32.94;30.27
66102;HTU21D;52883;51.094;5.880;2023-06-26T14:25:10;33.17;27.53
66102;HTU21D;52883;51.094;5.880;2023-06-26T14:27:37;33.05;29.71
66102;HTU21D;52883;51.094;5.880;2023-06-26T14:30:03;33.04;30.08
66102;HTU21D;52883;51.094;5.880;2023-06-26T14:32:29;32.97;29.29
66102;HTU21D;52883;51.094;5.880;2023-06-26T14:34:56;32.63;32.26
66102;HTU21D;52883;51.094;5.880;2023-06-26T14:37:21;32.67;32.78
66102;HTU21D;52883;51.094;5.880;2023-06-26T14:39:47;32.56;31.14
66102;HTU21D;52883;51.094;5.880;2023-06-26T14:42:13;32.24;32.47
66102;HTU21D;52883;51.094;5.880;2023-06-26T14:44:38;31.93;33.28
66102;HTU21D;52883;51.094;5.880;2023-06-26T14:47:04;31.81;31.93
66102;HTU21D;52883;51.094;5.880;2023-06-26T14:49:30;31.67;33.81
66102;HTU21D;52883;51.094;5.880;2023-06-26T14:51:56;31.63;32.74
66102;HTU21D;52883;51.094;5.880;2023-06-26T14:54:22;31.21;30.54
66102;HTU21D;52883;51.094;5.880;2023-06-26T14:56:48;30.90;34.74
66102;HTU21D;52883;51.094;5.880;2023-06-26T14:59:13;30.51;34.51
66102;HTU21D;52883;51.094;5.880;2023-06-26T15:01:39;30.10;35.19
66102;HTU21D;52883;51.094;5.880;2023-06-26T15:04:06;29.80;37.56
66102;HTU21D;52883;51.094;5.880;2023-06-26T15:06:32;29.53;38.27
66102;HTU21D;52883;51.094;5.880;2023-06-26T15:08:58;29.45;38.69
66102;HTU21D;52883;51.094;5.880;2023-06-26T15:11:25;29.44;38.45
66102;HTU21D;52883;51.094;5.880;2023-06-26T15:13:51;29.51;41.77
66102;HTU21D;52883;51.094;5.880;2023-06-26T15:16:16;29.56;38.17
66102;HTU21D;52883;51.094;5.880;2023-06-26T15:18:42;29.56;39.63
66102;HTU21D;52883;51.094;5.880;2023-06-26T15:21:08;29.81;40.45
66102;HTU21D;52883;51.094;5.880;2023-06-26T15:23:34;29.87;39.23